New Alexander, Ohio
Current Conditions -  °F | °C
As of 1:51 PM on Thursday 18 Dec 2014 (Local Time) from KCAK Reporting Station
Overcast Overcast  
Wind Chill: 19°   Ceiling: 1400
Heat Index: 28°   Visibility: 8mi
Dew Point: 21°   Wind: 10mph
Humidity: 75%   Direction: 270°W
Pressure: 30.15"   Gusts: NA
Location:  40.7264°N, 81.025°W
Report Text: KCAK 181851Z 27009KT 8SM OVC014 M02/M06 A3015 RMK AO2 SLP225 SNE50 P0000 T10221061
Loading
Personal Weather Stations






























Interactive Weather Map New forecast layout! Learn more

10-Day Weather Forecast

Advertisements
Track Severe Weather on mobile